sensor_id;sensor_type;location;lat;lon;timestamp;P1;durP1;ratioP1;P2;durP2;ratioP2
30681;SDS011;17439;48.092;11.842;2023-08-17T00:02:02;6.90;;;4.20;;
30681;SDS011;17439;48.092;11.842;2023-08-17T00:04:28;5.88;;;3.08;;
30681;SDS011;17439;48.092;11.842;2023-08-17T00:06:55;8.63;;;3.55;;
30681;SDS011;17439;48.092;11.842;2023-08-17T00:09:21;6.25;;;3.65;;
30681;SDS011;17439;48.092;11.842;2023-08-17T00:11:48;5.22;;;3.58;;
30681;SDS011;17439;48.092;11.842;2023-08-17T00:14:15;5.13;;;3.28;;
30681;SDS011;17439;48.092;11.842;2023-08-17T00:16:41;6.32;;;3.08;;
30681;SDS011;17439;48.092;11.842;2023-08-17T00:19:08;4.72;;;3.67;;
30681;SDS011;17439;48.092;11.842;2023-08-17T00:21:35;4.45;;;3.13;;
30681;SDS011;17439;48.092;11.842;2023-08-17T00:24:01;4.13;;;3.58;;
30681;SDS011;17439;48.092;11.842;2023-08-17T00:26:28;9.60;;;3.60;;
30681;SDS011;17439;48.092;11.842;2023-08-17T00:28:55;8.60;;;3.70;;
30681;SDS011;17439;48.092;11.842;2023-08-17T00:31:21;4.50;;;3.22;;
30681;SDS011;17439;48.092;11.842;2023-08-17T00:33:48;5.63;;;3.80;;
30681;SDS011;17439;48.092;11.842;2023-08-17T00:36:15;7.03;;;3.60;;
30681;SDS011;17439;48.092;11.842;2023-08-17T00:38:42;8.55;;;3.65;;
30681;SDS011;17439;48.092;11.842;2023-08-17T00:41:09;5.82;;;3.22;;
30681;SDS011;17439;48.092;11.842;2023-08-17T00:43:36;3.53;;;2.90;;
30681;SDS011;17439;48.092;11.842;2023-08-17T00:46:03;7.53;;;3.25;;
30681;SDS011;17439;48.092;11.842;2023-08-17T00:48:30;6.65;;;4.00;;
30681;SDS011;17439;48.092;11.842;2023-08-17T00:50:56;7.20;;;3.20;;
30681;SDS011;17439;48.092;11.842;2023-08-17T00:55:52;6.22;;;3.92;;
30681;SDS011;17439;48.092;11.842;2023-08-17T00:58:20;10.27;;;3.42;;
30681;SDS011;17439;48.092;11.842;2023-08-17T01:00:47;5.15;;;3.95;;
30681;SDS011;17439;48.092;11.842;2023-08-17T01:03:14;7.80;;;4.07;;
30681;SDS011;17439;48.092;11.842;2023-08-17T01:05:43;9.45;;;3.92;;
30681;SDS011;17439;48.092;11.842;2023-08-17T01:08:10;4.13;;;3.33;;
30681;SDS011;17439;48.092;11.842;2023-08-17T01:10:42;6.57;;;3.33;;
30681;SDS011;17439;48.092;11.842;2023-08-17T01:13:12;4.45;;;3.10;;
30681;SDS011;17439;48.092;11.842;2023-08-17T01:15:46;7.72;;;3.50;;
30681;SDS011;17439;48.092;11.842;2023-08-17T01:18:31;5.05;;;3.67;;
30681;SDS011;17439;48.092;11.842;2023-08-17T01:21:01;8.07;;;3.83;;
30681;SDS011;17439;48.092;11.842;2023-08-17T01:23:30;5.03;;;3.95;;
30681;SDS011;17439;48.092;11.842;2023-08-17T01:25:57;3.90;;;2.83;;
30681;SDS011;17439;48.092;11.842;2023-08-17T01:28:24;3.97;;;2.90;;
30681;SDS011;17439;48.092;11.842;2023-08-17T01:30:58;4.50;;;3.47;;
30681;SDS011;17439;48.092;11.842;2023-08-17T01:36:13;5.70;;;3.65;;
30681;SDS011;17439;48.092;11.842;2023-08-17T01:38:46;8.00;;;4.03;;
30681;SDS011;17439;48.092;11.842;2023-08-17T01:41:16;4.97;;;3.25;;
30681;SDS011;17439;48.092;11.842;2023-08-17T01:43:44;6.38;;;3.72;;
30681;SDS011;17439;48.092;11.842;2023-08-17T01:46:15;6.50;;;3.40;;
30681;SDS011;17439;48.092;11.842;2023-08-17T01:48:43;4.78;;;3.40;;
30681;SDS011;17439;48.092;11.842;2023-08-17T01:51:12;4.65;;;3.20;;
30681;SDS011;17439;48.092;11.842;2023-08-17T01:53:45;6.35;;;3.65;;
30681;SDS011;17439;48.092;11.842;2023-08-17T01:56:12;4.63;;;3.40;;
30681;SDS011;17439;48.092;11.842;2023-08-17T01:58:39;3.97;;;2.88;;
30681;SDS011;17439;48.092;11.842;2023-08-17T02:01:06;4.38;;;2.72;;
30681;SDS011;17439;48.092;11.842;2023-08-17T02:03:33;5.00;;;3.45;;
30681;SDS011;17439;48.092;11.842;2023-08-17T02:06:00;9.23;;;2.92;;
30681;SDS011;17439;48.092;11.842;2023-08-17T02:08:26;5.15;;;3.47;;
30681;SDS011;17439;48.092;11.842;2023-08-17T02:10:53;4.78;;;3.28;;
30681;SDS011;17439;48.092;11.842;2023-08-17T02:13:20;9.05;;;4.05;;
30681;SDS011;17439;48.092;11.842;2023-08-17T02:15:48;5.40;;;3.77;;
30681;SDS011;17439;48.092;11.842;2023-08-17T02:18:14;4.72;;;3.15;;
30681;SDS011;17439;48.092;11.842;2023-08-17T02:20:41;5.13;;;3.55;;
30681;SDS011;17439;48.092;11.842;2023-08-17T02:23:10;5.32;;;3.08;;
30681;SDS011;17439;48.092;11.842;2023-08-17T02:25:37;6.00;;;3.33;;
30681;SDS011;17439;48.092;11.842;2023-08-17T02:28:05;4.45;;;3.50;;
30681;SDS011;17439;48.092;11.842;2023-08-17T02:30:32;5.17;;;2.73;;
30681;SDS011;17439;48.092;11.842;2023-08-17T02:32:59;5.22;;;2.90;;
30681;SDS011;17439;48.092;11.842;2023-08-17T02:35:26;4.63;;;3.35;;
30681;SDS011;17439;48.092;11.842;2023-08-17T02:37:52;4.88;;;2.92;;
30681;SDS011;17439;48.092;11.842;2023-08-17T02:40:19;6.15;;;3.03;;
30681;SDS011;17439;48.092;11.842;2023-08-17T02:42:46;7.00;;;4.10;;
30681;SDS011;17439;48.092;11.842;2023-08-17T02:47:41;4.80;;;3.03;;
30681;SDS011;17439;48.092;11.842;2023-08-17T02:50:07;5.85;;;3.38;;
30681;SDS011;17439;48.092;11.842;2023-08-17T02:52:35;4.00;;;3.23;;
30681;SDS011;17439;48.092;11.842;2023-08-17T02:55:02;8.15;;;3.70;;
30681;SDS011;17439;48.092;11.842;2023-08-17T02:57:28;4.45;;;3.72;;
30681;SDS011;17439;48.092;11.842;2023-08-17T02:59:57;5.50;;;4.43;;
30681;SDS011;17439;48.092;11.842;2023-08-17T03:02:24;7.63;;;3.97;;
30681;SDS011;17439;48.092;11.842;2023-08-17T03:04:51;5.75;;;4.43;;
30681;SDS011;17439;48.092;11.842;2023-08-17T03:07:18;7.05;;;5.47;;
30681;SDS011;17439;48.092;11.842;2023-08-17T03:09:44;7.78;;;5.82;;
30681;SDS011;17439;48.092;11.842;2023-08-17T03:12:11;8.93;;;5.68;;
30681;SDS011;17439;48.092;11.842;2023-08-17T03:14:38;9.73;;;5.25;;
30681;SDS011;17439;48.092;11.842;2023-08-17T03:17:05;9.05;;;6.07;;
30681;SDS011;17439;48.092;11.842;2023-08-17T03:19:32;9.05;;;6.38;;
30681;SDS011;17439;48.092;11.842;2023-08-17T03:22:00;6.37;;;5.13;;
30681;SDS011;17439;48.092;11.842;2023-08-17T03:24:26;8.98;;;5.70;;
30681;SDS011;17439;48.092;11.842;2023-08-17T03:26:54;5.32;;;4.20;;
30681;SDS011;17439;48.092;11.842;2023-08-17T03:29:23;10.10;;;5.20;;
30681;SDS011;17439;48.092;11.842;2023-08-17T03:31:50;6.70;;;5.28;;
30681;SDS011;17439;48.092;11.842;2023-08-17T03:34:18;8.15;;;5.68;;
30681;SDS011;17439;48.092;11.842;2023-08-17T03:36:45;8.82;;;5.13;;
30681;SDS011;17439;48.092;11.842;2023-08-17T03:39:11;8.40;;;5.93;;
30681;SDS011;17439;48.092;11.842;2023-08-17T03:41:38;12.30;;;5.53;;
30681;SDS011;17439;48.092;11.842;2023-08-17T03:44:05;10.15;;;4.82;;
30681;SDS011;17439;48.092;11.842;2023-08-17T03:46:32;11.82;;;4.45;;
30681;SDS011;17439;48.092;11.842;2023-08-17T03:48:58;13.23;;;5.78;;
30681;SDS011;17439;48.092;11.842;2023-08-17T03:51:25;10.18;;;5.85;;
30681;SDS011;17439;48.092;11.842;2023-08-17T03:53:52;6.43;;;4.97;;
30681;SDS011;17439;48.092;11.842;2023-08-17T03:56:19;7.72;;;4.85;;
30681;SDS011;17439;48.092;11.842;2023-08-17T03:58:45;7.35;;;5.30;;
30681;SDS011;17439;48.092;11.842;2023-08-17T04:01:12;7.05;;;4.53;;
30681;SDS011;17439;48.092;11.842;2023-08-17T04:03:40;6.05;;;5.10;;
30681;SDS011;17439;48.092;11.842;2023-08-17T04:06:07;8.05;;;5.18;;
30681;SDS011;17439;48.092;11.842;2023-08-17T04:08:34;6.47;;;5.30;;
30681;SDS011;17439;48.092;11.842;2023-08-17T04:11:01;7.93;;;5.13;;
30681;SDS011;17439;48.092;11.842;2023-08-17T04:13:28;8.35;;;4.57;;
30681;SDS011;17439;48.092;11.842;2023-08-17T04:15:55;6.28;;;5.25;;
30681;SDS011;17439;48.092;11.842;2023-08-17T04:18:22;7.68;;;5.50;;
30681;SDS011;17439;48.092;11.842;2023-08-17T04:20:49;7.88;;;5.10;;
30681;SDS011;17439;48.092;11.842;2023-08-17T04:23:20;9.52;;;6.28;;
30681;SDS011;17439;48.092;11.842;2023-08-17T04:25:47;9.57;;;5.38;;
30681;SDS011;17439;48.092;11.842;2023-08-17T04:28:14;8.40;;;5.40;;
30681;SDS011;17439;48.092;11.842;2023-08-17T04:30:42;5.63;;;4.30;;
30681;SDS011;17439;48.092;11.842;2023-08-17T04:33:09;12.15;;;5.93;;
30681;SDS011;17439;48.092;11.842;2023-08-17T04:35:37;8.60;;;5.07;;
30681;SDS011;17439;48.092;11.842;2023-08-17T04:38:04;7.20;;;5.30;;
30681;SDS011;17439;48.092;11.842;2023-08-17T04:40:31;9.25;;;5.25;;
30681;SDS011;17439;48.092;11.842;2023-08-17T04:42:59;9.10;;;5.28;;
30681;SDS011;17439;48.092;11.842;2023-08-17T04:45:26;12.07;;;6.32;;
30681;SDS011;17439;48.092;11.842;2023-08-17T04:47:53;7.13;;;5.15;;
30681;SDS011;17439;48.092;11.842;2023-08-17T04:50:20;8.23;;;5.95;;
30681;SDS011;17439;48.092;11.842;2023-08-17T04:52:47;6.50;;;4.88;;
30681;SDS011;17439;48.092;11.842;2023-08-17T04:55:14;6.78;;;4.68;;
30681;SDS011;17439;48.092;11.842;2023-08-17T04:57:41;10.32;;;6.28;;
30681;SDS011;17439;48.092;11.842;2023-08-17T05:00:10;10.90;;;5.80;;
30681;SDS011;17439;48.092;11.842;2023-08-17T05:02:38;7.53;;;5.72;;
30681;SDS011;17439;48.092;11.842;2023-08-17T05:05:07;6.95;;;5.15;;
30681;SDS011;17439;48.092;11.842;2023-08-17T05:07:36;9.57;;;4.68;;
30681;SDS011;17439;48.092;11.842;2023-08-17T05:10:03;7.85;;;5.90;;
30681;SDS011;17439;48.092;11.842;2023-08-17T05:12:33;7.53;;;4.97;;
30681;SDS011;17439;48.092;11.842;2023-08-17T05:14:59;5.40;;;4.63;;
30681;SDS011;17439;48.092;11.842;2023-08-17T05:17:26;8.35;;;5.85;;
30681;SDS011;17439;48.092;11.842;2023-08-17T05:19:55;6.55;;;5.03;;
30681;SDS011;17439;48.092;11.842;2023-08-17T05:22:21;9.27;;;5.25;;
30681;SDS011;17439;48.092;11.842;2023-08-17T05:24:48;10.18;;;5.50;;
30681;SDS011;17439;48.092;11.842;2023-08-17T05:27:17;6.45;;;5.43;;
30681;SDS011;17439;48.092;11.842;2023-08-17T05:29:44;8.52;;;5.35;;
30681;SDS011;17439;48.092;11.842;2023-08-17T05:32:10;6.35;;;5.00;;
30681;SDS011;17439;48.092;11.842;2023-08-17T05:34:37;5.53;;;4.55;;
30681;SDS011;17439;48.092;11.842;2023-08-17T05:37:04;6.75;;;4.93;;
30681;SDS011;17439;48.092;11.842;2023-08-17T05:39:31;6.70;;;5.65;;
30681;SDS011;17439;48.092;11.842;2023-08-17T05:42:01;6.20;;;5.05;;
30681;SDS011;17439;48.092;11.842;2023-08-17T05:44:27;17.95;;;5.90;;
30681;SDS011;17439;48.092;11.842;2023-08-17T05:46:54;7.75;;;5.20;;
30681;SDS011;17439;48.092;11.842;2023-08-17T05:49:21;6.57;;;4.57;;
30681;SDS011;17439;48.092;11.842;2023-08-17T05:51:47;6.30;;;4.95;;
30681;SDS011;17439;48.092;11.842;2023-08-17T05:54:16;6.13;;;5.43;;
30681;SDS011;17439;48.092;11.842;2023-08-17T05:56:43;6.65;;;4.50;;
30681;SDS011;17439;48.092;11.842;2023-08-17T05:59:13;6.25;;;4.47;;
30681;SDS011;17439;48.092;11.842;2023-08-17T06:01:40;6.05;;;4.38;;
30681;SDS011;17439;48.092;11.842;2023-08-17T06:04:07;8.43;;;4.70;;
30681;SDS011;17439;48.092;11.842;2023-08-17T06:06:34;5.40;;;4.53;;
30681;SDS011;17439;48.092;11.842;2023-08-17T06:09:00;5.10;;;4.43;;
30681;SDS011;17439;48.092;11.842;2023-08-17T06:11:27;6.85;;;4.47;;
30681;SDS011;17439;48.092;11.842;2023-08-17T06:13:54;6.63;;;4.75;;
30681;SDS011;17439;48.092;11.842;2023-08-17T06:16:20;5.47;;;4.53;;
30681;SDS011;17439;48.092;11.842;2023-08-17T06:18:47;5.90;;;4.60;;
30681;SDS011;17439;48.092;11.842;2023-08-17T06:21:14;5.40;;;4.25;;
30681;SDS011;17439;48.092;11.842;2023-08-17T06:23:40;5.55;;;4.70;;
30681;SDS011;17439;48.092;11.842;2023-08-17T06:26:07;7.57;;;4.20;;
30681;SDS011;17439;48.092;11.842;2023-08-17T06:28:34;5.18;;;4.15;;
30681;SDS011;17439;48.092;11.842;2023-08-17T06:31:01;4.38;;;3.70;;
30681;SDS011;17439;48.092;11.842;2023-08-17T06:33:27;5.40;;;4.25;;
30681;SDS011;17439;48.092;11.842;2023-08-17T06:35:54;5.78;;;4.57;;
30681;SDS011;17439;48.092;11.842;2023-08-17T06:38:21;6.68;;;4.28;;
30681;SDS011;17439;48.092;11.842;2023-08-17T06:40:47;7.53;;;5.00;;
30681;SDS011;17439;48.092;11.842;2023-08-17T06:43:14;6.72;;;4.85;;
30681;SDS011;17439;48.092;11.842;2023-08-17T06:45:44;6.22;;;4.93;;
30681;SDS011;17439;48.092;11.842;2023-08-17T06:48:11;7.03;;;5.43;;
30681;SDS011;17439;48.092;11.842;2023-08-17T06:50:37;7.68;;;4.88;;
30681;SDS011;17439;48.092;11.842;2023-08-17T06:53:04;8.63;;;4.93;;
30681;SDS011;17439;48.092;11.842;2023-08-17T06:55:31;6.18;;;5.10;;
30681;SDS011;17439;48.092;11.842;2023-08-17T06:57:57;8.07;;;4.95;;
30681;SDS011;17439;48.092;11.842;2023-08-17T07:00:24;6.18;;;4.47;;
30681;SDS011;17439;48.092;11.842;2023-08-17T07:02:51;5.60;;;4.75;;
30681;SDS011;17439;48.092;11.842;2023-08-17T07:05:23;9.18;;;4.57;;
30681;SDS011;17439;48.092;11.842;2023-08-17T07:07:49;5.00;;;4.50;;
30681;SDS011;17439;48.092;11.842;2023-08-17T07:10:16;6.10;;;4.60;;
30681;SDS011;17439;48.092;11.842;2023-08-17T07:12:43;4.45;;;3.97;;
30681;SDS011;17439;48.092;11.842;2023-08-17T07:15:09;6.28;;;5.43;;
30681;SDS011;17439;48.092;11.842;2023-08-17T07:17:37;5.13;;;4.10;;
30681;SDS011;17439;48.092;11.842;2023-08-17T07:20:04;5.32;;;4.03;;
30681;SDS011;17439;48.092;11.842;2023-08-17T07:22:34;5.50;;;4.03;;
30681;SDS011;17439;48.092;11.842;2023-08-17T07:25:01;6.22;;;4.18;;
30681;SDS011;17439;48.092;11.842;2023-08-17T07:27:27;6.57;;;3.35;;
30681;SDS011;17439;48.092;11.842;2023-08-17T07:29:55;6.07;;;3.50;;
30681;SDS011;17439;48.092;11.842;2023-08-17T07:32:22;4.05;;;2.70;;
30681;SDS011;17439;48.092;11.842;2023-08-17T07:34:48;5.57;;;3.22;;
30681;SDS011;17439;48.092;11.842;2023-08-17T07:37:15;4.28;;;3.30;;
30681;SDS011;17439;48.092;11.842;2023-08-17T07:39:41;6.43;;;3.08;;
30681;SDS011;17439;48.092;11.842;2023-08-17T07:42:08;4.32;;;3.53;;
30681;SDS011;17439;48.092;11.842;2023-08-17T07:44:35;4.72;;;3.63;;
30681;SDS011;17439;48.092;11.842;2023-08-17T07:47:02;8.48;;;3.53;;
30681;SDS011;17439;48.092;11.842;2023-08-17T07:49:29;8.23;;;3.75;;
30681;SDS011;17439;48.092;11.842;2023-08-17T07:52:15;4.50;;;3.47;;
30681;SDS011;17439;48.092;11.842;2023-08-17T07:54:42;5.37;;;2.67;;
30681;SDS011;17439;48.092;11.842;2023-08-17T07:57:09;4.05;;;3.25;;
30681;SDS011;17439;48.092;11.842;2023-08-17T07:59:36;5.10;;;3.33;;
30681;SDS011;17439;48.092;11.842;2023-08-17T08:02:03;4.88;;;3.08;;
30681;SDS011;17439;48.092;11.842;2023-08-17T08:04:29;3.88;;;3.45;;
30681;SDS011;17439;48.092;11.842;2023-08-17T08:06:56;4.50;;;3.40;;
30681;SDS011;17439;48.092;11.842;2023-08-17T08:09:23;3.58;;;3.13;;
30681;SDS011;17439;48.092;11.842;2023-08-17T08:11:49;5.18;;;3.40;;
30681;SDS011;17439;48.092;11.842;2023-08-17T08:14:17;4.23;;;3.60;;
30681;SDS011;17439;48.092;11.842;2023-08-17T08:16:43;3.60;;;3.08;;
30681;SDS011;17439;48.092;11.842;2023-08-17T08:19:10;5.32;;;3.55;;
30681;SDS011;17439;48.092;11.842;2023-08-17T08:21:37;5.72;;;3.10;;
30681;SDS011;17439;48.092;11.842;2023-08-17T08:24:03;3.60;;;3.30;;
30681;SDS011;17439;48.092;11.842;2023-08-17T08:26:39;3.97;;;3.30;;
30681;SDS011;17439;48.092;11.842;2023-08-17T08:29:06;4.65;;;3.10;;
30681;SDS011;17439;48.092;11.842;2023-08-17T08:31:32;3.55;;;3.00;;
30681;SDS011;17439;48.092;11.842;2023-08-17T08:33:59;4.95;;;3.95;;
30681;SDS011;17439;48.092;11.842;2023-08-17T08:36:26;5.35;;;2.95;;
30681;SDS011;17439;48.092;11.842;2023-08-17T08:38:53;6.10;;;3.17;;
30681;SDS011;17439;48.092;11.842;2023-08-17T08:41:19;4.05;;;3.10;;
30681;SDS011;17439;48.092;11.842;2023-08-17T08:43:47;5.20;;;3.60;;
30681;SDS011;17439;48.092;11.842;2023-08-17T08:46:16;6.88;;;3.30;;
30681;SDS011;17439;48.092;11.842;2023-08-17T08:48:43;3.67;;;3.28;;
30681;SDS011;17439;48.092;11.842;2023-08-17T08:51:13;5.30;;;3.78;;
30681;SDS011;17439;48.092;11.842;2023-08-17T08:53:46;4.00;;;3.58;;
30681;SDS011;17439;48.092;11.842;2023-08-17T08:56:19;5.88;;;3.85;;
30681;SDS011;17439;48.092;11.842;2023-08-17T08:58:50;4.28;;;3.17;;
30681;SDS011;17439;48.092;11.842;2023-08-17T09:01:20;4.65;;;3.13;;
30681;SDS011;17439;48.092;11.842;2023-08-17T09:06:14;5.13;;;3.45;;
30681;SDS011;17439;48.092;11.842;2023-08-17T09:08:42;3.90;;;3.38;;
30681;SDS011;17439;48.092;11.842;2023-08-17T09:11:10;4.25;;;3.53;;
30681;SDS011;17439;48.092;11.842;2023-08-17T09:13:36;4.88;;;3.97;;
30681;SDS011;17439;48.092;11.842;2023-08-17T09:16:03;4.10;;;3.10;;
30681;SDS011;17439;48.092;11.842;2023-08-17T09:18:34;5.78;;;4.38;;
30681;SDS011;17439;48.092;11.842;2023-08-17T09:21:04;5.13;;;3.85;;
30681;SDS011;17439;48.092;11.842;2023-08-17T09:23:30;4.18;;;3.70;;
30681;SDS011;17439;48.092;11.842;2023-08-17T09:26:07;6.20;;;4.03;;
30681;SDS011;17439;48.092;11.842;2023-08-17T09:28:36;5.93;;;3.40;;
30681;SDS011;17439;48.092;11.842;2023-08-17T09:31:05;4.57;;;3.50;;
30681;SDS011;17439;48.092;11.842;2023-08-17T09:33:32;4.63;;;3.90;;
30681;SDS011;17439;48.092;11.842;2023-08-17T09:35:59;4.25;;;3.83;;
30681;SDS011;17439;48.092;11.842;2023-08-17T09:38:27;4.97;;;4.22;;
30681;SDS011;17439;48.092;11.842;2023-08-17T09:40:54;5.45;;;3.80;;
30681;SDS011;17439;48.092;11.842;2023-08-17T09:45:48;6.20;;;4.20;;
30681;SDS011;17439;48.092;11.842;2023-08-17T09:48:16;4.30;;;3.90;;
30681;SDS011;17439;48.092;11.842;2023-08-17T09:50:43;4.95;;;3.75;;
30681;SDS011;17439;48.092;11.842;2023-08-17T09:55:41;5.20;;;4.32;;
30681;SDS011;17439;48.092;11.842;2023-08-17T09:58:09;4.97;;;3.85;;
30681;SDS011;17439;48.092;11.842;2023-08-17T10:00:36;4.70;;;4.28;;
30681;SDS011;17439;48.092;11.842;2023-08-17T10:03:05;6.50;;;4.68;;
30681;SDS011;17439;48.092;11.842;2023-08-17T10:05:35;4.70;;;4.15;;
30681;SDS011;17439;48.092;11.842;2023-08-17T10:08:06;5.28;;;3.63;;
30681;SDS011;17439;48.092;11.842;2023-08-17T10:10:34;4.53;;;4.00;;
30681;SDS011;17439;48.092;11.842;2023-08-17T10:13:08;5.05;;;4.28;;
30681;SDS011;17439;48.092;11.842;2023-08-17T10:15:37;5.10;;;4.60;;
30681;SDS011;17439;48.092;11.842;2023-08-17T10:18:09;6.65;;;5.20;;
30681;SDS011;17439;48.092;11.842;2023-08-17T10:20:51;9.93;;;4.82;;
30681;SDS011;17439;48.092;11.842;2023-08-17T10:23:24;4.28;;;3.88;;
30681;SDS011;17439;48.092;11.842;2023-08-17T10:25:51;5.97;;;4.50;;
30681;SDS011;17439;48.092;11.842;2023-08-17T10:30:47;4.80;;;4.30;;
30681;SDS011;17439;48.092;11.842;2023-08-17T10:33:14;4.03;;;3.63;;
30681;SDS011;17439;48.092;11.842;2023-08-17T10:35:41;5.50;;;4.93;;
30681;SDS011;17439;48.092;11.842;2023-08-17T10:38:09;4.65;;;3.95;;
30681;SDS011;17439;48.092;11.842;2023-08-17T10:43:04;5.30;;;3.70;;
30681;SDS011;17439;48.092;11.842;2023-08-17T10:45:32;6.82;;;4.72;;
30681;SDS011;17439;48.092;11.842;2023-08-17T10:50:35;5.88;;;4.80;;
30681;SDS011;17439;48.092;11.842;2023-08-17T10:53:09;8.35;;;4.90;;
30681;SDS011;17439;48.092;11.842;2023-08-17T10:55:41;4.25;;;3.85;;
30681;SDS011;17439;48.092;11.842;2023-08-17T10:58:11;6.85;;;5.30;;
30681;SDS011;17439;48.092;11.842;2023-08-17T11:00:40;5.53;;;4.78;;
30681;SDS011;17439;48.092;11.842;2023-08-17T11:03:08;6.15;;;4.57;;
30681;SDS011;17439;48.092;11.842;2023-08-17T11:05:36;6.75;;;4.97;;
30681;SDS011;17439;48.092;11.842;2023-08-17T11:08:07;5.57;;;4.47;;
30681;SDS011;17439;48.092;11.842;2023-08-17T11:10:35;5.53;;;4.30;;
30681;SDS011;17439;48.092;11.842;2023-08-17T11:13:02;6.70;;;4.68;;
30681;SDS011;17439;48.092;11.842;2023-08-17T11:15:39;5.83;;;4.63;;
30681;SDS011;17439;48.092;11.842;2023-08-17T11:20:35;5.68;;;5.07;;
30681;SDS011;17439;48.092;11.842;2023-08-17T11:23:04;7.88;;;4.55;;
30681;SDS011;17439;48.092;11.842;2023-08-17T11:25:32;5.45;;;4.60;;
30681;SDS011;17439;48.092;11.842;2023-08-17T11:28:02;5.63;;;4.22;;
30681;SDS011;17439;48.092;11.842;2023-08-17T11:30:29;8.27;;;5.07;;
30681;SDS011;17439;48.092;11.842;2023-08-17T11:32:56;5.50;;;4.70;;
30681;SDS011;17439;48.092;11.842;2023-08-17T11:35:23;6.00;;;4.33;;
30681;SDS011;17439;48.092;11.842;2023-08-17T11:37:50;5.15;;;4.18;;
30681;SDS011;17439;48.092;11.842;2023-08-17T11:40:16;4.70;;;4.10;;
30681;SDS011;17439;48.092;11.842;2023-08-17T11:42:44;5.80;;;4.53;;
30681;SDS011;17439;48.092;11.842;2023-08-17T11:45:12;7.25;;;4.90;;
30681;SDS011;17439;48.092;11.842;2023-08-17T11:50:08;7.40;;;4.47;;
30681;SDS011;17439;48.092;11.842;2023-08-17T11:52:46;4.82;;;4.32;;
30681;SDS011;17439;48.092;11.842;2023-08-17T11:55:15;4.00;;;3.60;;
30681;SDS011;17439;48.092;11.842;2023-08-17T11:57:43;4.88;;;4.25;;
30681;SDS011;17439;48.092;11.842;2023-08-17T12:00:10;4.65;;;3.80;;
30681;SDS011;17439;48.092;11.842;2023-08-17T12:02:46;4.20;;;3.80;;
30681;SDS011;17439;48.092;11.842;2023-08-17T12:05:13;9.95;;;4.25;;
30681;SDS011;17439;48.092;11.842;2023-08-17T12:07:40;6.45;;;4.53;;
30681;SDS011;17439;48.092;11.842;2023-08-17T12:10:07;4.30;;;3.83;;
30681;SDS011;17439;48.092;11.842;2023-08-17T12:12:36;6.75;;;4.47;;
30681;SDS011;17439;48.092;11.842;2023-08-17T12:15:03;4.68;;;4.05;;
30681;SDS011;17439;48.092;11.842;2023-08-17T12:17:30;4.43;;;4.03;;
30681;SDS011;17439;48.092;11.842;2023-08-17T12:19:58;4.27;;;3.87;;
30681;SDS011;17439;48.092;11.842;2023-08-17T12:22:25;5.22;;;3.60;;
30681;SDS011;17439;48.092;11.842;2023-08-17T12:24:53;5.00;;;3.83;;
30681;SDS011;17439;48.092;11.842;2023-08-17T12:27:21;4.40;;;4.00;;
30681;SDS011;17439;48.092;11.842;2023-08-17T12:29:48;5.55;;;4.65;;
30681;SDS011;17439;48.092;11.842;2023-08-17T12:32:18;6.78;;;4.32;;
30681;SDS011;17439;48.092;11.842;2023-08-17T12:34:45;5.47;;;4.38;;
30681;SDS011;17439;48.092;11.842;2023-08-17T12:37:17;5.53;;;4.30;;
30681;SDS011;17439;48.092;11.842;2023-08-17T12:39:45;5.38;;;4.20;;
30681;SDS011;17439;48.092;11.842;2023-08-17T12:42:12;7.88;;;4.90;;
30681;SDS011;17439;48.092;11.842;2023-08-17T12:44:38;5.45;;;4.25;;
30681;SDS011;17439;48.092;11.842;2023-08-17T12:47:05;4.53;;;4.13;;
30681;SDS011;17439;48.092;11.842;2023-08-17T12:49:32;4.72;;;4.25;;
30681;SDS011;17439;48.092;11.842;2023-08-17T12:52:04;5.78;;;4.00;;
30681;SDS011;17439;48.092;11.842;2023-08-17T12:54:31;4.85;;;4.40;;
30681;SDS011;17439;48.092;11.842;2023-08-17T12:56:58;5.28;;;4.03;;
30681;SDS011;17439;48.092;11.842;2023-08-17T12:59:27;5.07;;;4.15;;
30681;SDS011;17439;48.092;11.842;2023-08-17T13:01:53;4.97;;;4.47;;
30681;SDS011;17439;48.092;11.842;2023-08-17T13:04:20;5.40;;;4.15;;
30681;SDS011;17439;48.092;11.842;2023-08-17T13:06:47;6.03;;;4.40;;
30681;SDS011;17439;48.092;11.842;2023-08-17T13:09:15;5.15;;;4.07;;
30681;SDS011;17439;48.092;11.842;2023-08-17T13:11:42;6.50;;;4.13;;
30681;SDS011;17439;48.092;11.842;2023-08-17T13:14:09;7.53;;;4.47;;
30681;SDS011;17439;48.092;11.842;2023-08-17T13:16:35;4.77;;;4.27;;
30681;SDS011;17439;48.092;11.842;2023-08-17T13:19:02;4.63;;;3.73;;
30681;SDS011;17439;48.092;11.842;2023-08-17T13:21:29;4.10;;;3.67;;
30681;SDS011;17439;48.092;11.842;2023-08-17T13:23:55;5.57;;;4.00;;
30681;SDS011;17439;48.092;11.842;2023-08-17T13:26:22;4.67;;;3.87;;
30681;SDS011;17439;48.092;11.842;2023-08-17T13:28:49;3.97;;;3.57;;
30681;SDS011;17439;48.092;11.842;2023-08-17T13:31:16;4.78;;;4.10;;
30681;SDS011;17439;48.092;11.842;2023-08-17T13:33:50;4.97;;;4.05;;
30681;SDS011;17439;48.092;11.842;2023-08-17T13:36:20;4.68;;;4.10;;
30681;SDS011;17439;48.092;11.842;2023-08-17T13:38:46;6.20;;;3.90;;
30681;SDS011;17439;48.092;11.842;2023-08-17T13:41:13;5.40;;;4.85;;
30681;SDS011;17439;48.092;11.842;2023-08-17T13:43:40;7.68;;;4.28;;
30681;SDS011;17439;48.092;11.842;2023-08-17T13:46:07;5.55;;;4.40;;
30681;SDS011;17439;48.092;11.842;2023-08-17T13:48:33;6.80;;;3.92;;
30681;SDS011;17439;48.092;11.842;2023-08-17T13:51:00;5.97;;;4.32;;
30681;SDS011;17439;48.092;11.842;2023-08-17T13:53:32;4.68;;;4.22;;
30681;SDS011;17439;48.092;11.842;2023-08-17T13:55:59;5.43;;;4.03;;
30681;SDS011;17439;48.092;11.842;2023-08-17T13:58:26;9.53;;;4.47;;
30681;SDS011;17439;48.092;11.842;2023-08-17T14:00:53;5.80;;;4.20;;
30681;SDS011;17439;48.092;11.842;2023-08-17T14:03:19;4.80;;;4.10;;
30681;SDS011;17439;48.092;11.842;2023-08-17T14:05:46;5.32;;;3.78;;
30681;SDS011;17439;48.092;11.842;2023-08-17T14:08:13;5.45;;;4.15;;
30681;SDS011;17439;48.092;11.842;2023-08-17T14:10:39;7.63;;;4.00;;
30681;SDS011;17439;48.092;11.842;2023-08-17T14:13:06;5.57;;;4.97;;
30681;SDS011;17439;48.092;11.842;2023-08-17T14:15:33;4.05;;;3.70;;
30681;SDS011;17439;48.092;11.842;2023-08-17T14:17:59;9.67;;;4.60;;
30681;SDS011;17439;48.092;11.842;2023-08-17T14:20:26;5.00;;;4.43;;
30681;SDS011;17439;48.092;11.842;2023-08-17T14:22:53;7.33;;;4.20;;
30681;SDS011;17439;48.092;11.842;2023-08-17T14:25:20;6.68;;;4.18;;
30681;SDS011;17439;48.092;11.842;2023-08-17T14:27:47;4.40;;;3.78;;
30681;SDS011;17439;48.092;11.842;2023-08-17T14:30:14;4.70;;;3.30;;
30681;SDS011;17439;48.092;11.842;2023-08-17T14:32:40;4.10;;;3.60;;
30681;SDS011;17439;48.092;11.842;2023-08-17T14:35:07;5.67;;;4.23;;
30681;SDS011;17439;48.092;11.842;2023-08-17T14:37:37;10.63;;;4.38;;
30681;SDS011;17439;48.092;11.842;2023-08-17T14:40:04;5.70;;;3.95;;
30681;SDS011;17439;48.092;11.842;2023-08-17T14:42:31;5.45;;;4.15;;
30681;SDS011;17439;48.092;11.842;2023-08-17T14:44:57;4.80;;;4.30;;
30681;SDS011;17439;48.092;11.842;2023-08-17T14:47:24;4.45;;;3.88;;
30681;SDS011;17439;48.092;11.842;2023-08-17T14:49:51;6.60;;;3.85;;
30681;SDS011;17439;48.092;11.842;2023-08-17T14:52:18;7.63;;;4.20;;
30681;SDS011;17439;48.092;11.842;2023-08-17T14:54:45;5.25;;;4.63;;
30681;SDS011;17439;48.092;11.842;2023-08-17T14:57:12;6.75;;;4.10;;
30681;SDS011;17439;48.092;11.842;2023-08-17T14:59:38;8.18;;;4.20;;
30681;SDS011;17439;48.092;11.842;2023-08-17T15:02:05;6.15;;;4.28;;
30681;SDS011;17439;48.092;11.842;2023-08-17T15:04:32;6.97;;;3.47;;